»·PEaware :: N628DC L71-KSNA

N628DC :: L71-KSNA

FLIGHT INFORMATION

Flight Status: Arrived
Operator: Privately registered:
United States
More flights under this callsign
Pilot: Joe M. (18884)
Aircraft: Unknown
(DA62)
More flights by this aircraft type
Origin: L71 California City Mun
United States
Destination: KSNA John Wayne-Orange Co
United States
More flights between these airports :: More routes between these airports
Route: +LHS V459 SLI
File this flight plan on PilotEdge
Remarks:
Altitude:
(Current/Filed)
11,000ft
Speed:
(Current/Filed)
180kts
Departed: 30-Aug-18 02:52 PM
Arrived: 30-Aug-18 03:39 PM
Distance/Time
Traveled:
89nm/0:47
Distance/Time
To Go:
Arrived

Flight Plot

Page will automatically refresh every two minutes.

Flight plan parsing failed; only flown route is shown


Map Options




Map Legend


Flown Route
Filed Route
Departure Airport
Arrival Airport
Navaid (VOR, NDB)
Fix

Horizontal Profiles

Position Reports

Time Latitude Longitude Heading Altitude Ground
Speed
30-Aug-18 14:42 35.149634 -118.014624 270 2423ft 0kts
30-Aug-18 14:43 35.149634 -118.014624 270 2423ft 0kts
30-Aug-18 14:44 35.149634 -118.014624 270 2423ft 0kts
30-Aug-18 14:45 35.149634 -118.014624 270 2423ft 0kts
30-Aug-18 14:46 35.149634 -118.014624 270 2423ft 0kts
30-Aug-18 14:47 35.149634 -118.014624 270 2423ft 0kts
30-Aug-18 14:48 35.149634 -118.014624 270 2423ft 0kts
30-Aug-18 14:49 35.150120 -118.015178 354 2425ft 11kts
30-Aug-18 14:50 35.152412 -118.007760 74 2405ft 13kts
30-Aug-18 14:51 35.152851 -118.006828 342 2403ft 0kts
30-Aug-18 14:52 35.153218 -118.006975 331 2403ft 9kts
30-Aug-18 14:53 35.149061 -118.026445 259 2832ft 80kts
30-Aug-18 14:54 35.137158 -118.049494 232 3582ft 85kts
30-Aug-18 14:55 35.119759 -118.069965 232 4337ft 87kts
30-Aug-18 14:56 35.102352 -118.090307 231 4994ft 86kts
30-Aug-18 14:57 35.083792 -118.111934 231 5642ft 91kts
30-Aug-18 14:58 35.065568 -118.133218 231 6331ft 92kts
30-Aug-18 14:59 35.046903 -118.154998 230 7025ft 93kts
30-Aug-18 15:00 35.027482 -118.177668 229 7643ft 100kts
30-Aug-18 15:01 35.007352 -118.201131 229 8463ft 101kts
30-Aug-18 15:02 34.986969 -118.224878 228 9392ft 102kts
30-Aug-18 15:03 34.966339 -118.248887 227 10302ft 104kts
30-Aug-18 15:04 34.945162 -118.273538 226 11039ft 119kts
30-Aug-18 15:05 34.916911 -118.306319 225 11019ft 154kts
30-Aug-18 15:06 34.884256 -118.344211 225 11001ft 168kts
30-Aug-18 15:07 34.850213 -118.383669 225 11010ft 170kts
30-Aug-18 15:08 34.815950 -118.423335 225 11018ft 170kts
30-Aug-18 15:09 34.781652 -118.463014 225 11016ft 171kts
30-Aug-18 15:10 34.746797 -118.503270 225 11002ft 174kts
30-Aug-18 15:11 34.711820 -118.543618 225 10981ft 174kts
30-Aug-18 15:12 34.671910 -118.568001 164 10992ft 185kts
30-Aug-18 15:13 34.624810 -118.542350 158 11036ft 184kts
30-Aug-18 15:14 34.578410 -118.515369 158 11041ft 186kts
30-Aug-18 15:15 34.531909 -118.488171 158 11036ft 186kts
30-Aug-18 15:16 34.485459 -118.461017 158 11028ft 187kts
30-Aug-18 15:17 34.438532 -118.433616 158 11023ft 187kts
30-Aug-18 15:18 34.392054 -118.406509 158 11023ft 187kts
30-Aug-18 15:19 34.345428 -118.379343 158 11021ft 186kts
30-Aug-18 15:20 34.298784 -118.352205 158 11017ft 186kts
30-Aug-18 15:21 34.251748 -118.324876 158 11011ft 190kts
30-Aug-18 15:22 34.204225 -118.297293 158 11006ft 190kts
30-Aug-18 15:23 34.156877 -118.269859 158 11005ft 185kts
30-Aug-18 15:24 34.110743 -118.243159 158 11004ft 184kts
30-Aug-18 15:25 34.064900 -118.216670 158 11004ft 184kts
30-Aug-18 15:26 34.017607 -118.197015 181 10843ft 186kts
30-Aug-18 15:27 33.963527 -118.195994 182 10048ft 198kts
30-Aug-18 15:28 33.908981 -118.195184 182 9103ft 195kts
30-Aug-18 15:29 33.855883 -118.194369 182 8111ft 192kts
30-Aug-18 15:30 33.802931 -118.193444 182 7112ft 190kts
30-Aug-18 15:31 33.750354 -118.192366 182 6109ft 188kts
30-Aug-18 15:32 33.710357 -118.166582 93 5097ft 204kts
30-Aug-18 15:33 33.710533 -118.102726 91 5007ft 183kts
30-Aug-18 15:34 33.711393 -118.042907 91 5008ft 178kts
30-Aug-18 15:35 33.712200 -117.983388 91 5009ft 177kts
30-Aug-18 15:36 33.718487 -117.921925 62 3377ft 187kts
30-Aug-18 15:37 33.744402 -117.882964 83 2788ft 144kts
30-Aug-18 15:38 33.723296 -117.852648 172 2131ft 130kts
30-Aug-18 15:39 33.693206 -117.857648 207 464ft 91kts
30-Aug-18 15:40 33.675207 -117.868754 167 60ft 27kts
30-Aug-18 15:42 33.674314 -117.868408 128 60ft 0kts
30-Aug-18 15:42 33.673911 -117.867600 119 60ft 9kts
30-Aug-18 15:44 33.671452 -117.867833 213 60ft 7kts
30-Aug-18 15:44 33.671229 -117.867793 30 60ft 0kts
30-Aug-18 15:45 33.671229 -117.867793 30 60ft 0kts

Navigation Log

Ident Type
Flight plan parsing failed, navigation log unavailable